sensor_id;sensor_type;location;lat;lon;timestamp;P1;durP1;ratioP1;P2;durP2;ratioP2
43994;SDS011;51687;52.160;5.298;2023-10-31T00:01:22;4.28;;;1.10;;
43994;SDS011;51687;52.160;5.298;2023-10-31T00:03:49;5.90;;;1.17;;
43994;SDS011;51687;52.160;5.298;2023-10-31T00:06:16;6.18;;;1.10;;
43994;SDS011;51687;52.160;5.298;2023-10-31T00:08:44;7.85;;;1.30;;
43994;SDS011;51687;52.160;5.298;2023-10-31T00:11:11;4.75;;;1.33;;
43994;SDS011;51687;52.160;5.298;2023-10-31T00:13:38;4.18;;;1.40;;
43994;SDS011;51687;52.160;5.298;2023-10-31T00:16:05;7.00;;;1.45;;
43994;SDS011;51687;52.160;5.298;2023-10-31T00:18:33;7.55;;;2.22;;
43994;SDS011;51687;52.160;5.298;2023-10-31T00:20:59;4.13;;;1.77;;
43994;SDS011;51687;52.160;5.298;2023-10-31T00:23:26;5.95;;;2.70;;
43994;SDS011;51687;52.160;5.298;2023-10-31T00:25:53;10.90;;;4.10;;
43994;SDS011;51687;52.160;5.298;2023-10-31T00:28:20;8.32;;;4.63;;
43994;SDS011;51687;52.160;5.298;2023-10-31T00:30:47;11.10;;;5.32;;
43994;SDS011;51687;52.160;5.298;2023-10-31T00:33:13;8.25;;;6.07;;
43994;SDS011;51687;52.160;5.298;2023-10-31T00:35:40;10.93;;;8.10;;
43994;SDS011;51687;52.160;5.298;2023-10-31T00:38:07;8.75;;;7.80;;
43994;SDS011;51687;52.160;5.298;2023-10-31T00:40:34;11.68;;;8.90;;
43994;SDS011;51687;52.160;5.298;2023-10-31T00:43:01;14.20;;;9.95;;
43994;SDS011;51687;52.160;5.298;2023-10-31T00:45:28;12.50;;;10.63;;
43994;SDS011;51687;52.160;5.298;2023-10-31T00:47:55;19.98;;;11.35;;
43994;SDS011;51687;52.160;5.298;2023-10-31T00:50:22;13.63;;;11.25;;
43994;SDS011;51687;52.160;5.298;2023-10-31T00:52:48;15.35;;;12.93;;
43994;SDS011;51687;52.160;5.298;2023-10-31T00:55:15;16.35;;;14.13;;
43994;SDS011;51687;52.160;5.298;2023-10-31T00:57:42;17.83;;;12.65;;
43994;SDS011;51687;52.160;5.298;2023-10-31T01:00:09;15.52;;;11.82;;
43994;SDS011;51687;52.160;5.298;2023-10-31T01:02:36;14.60;;;12.30;;
43994;SDS011;51687;52.160;5.298;2023-10-31T01:05:03;14.75;;;12.73;;
43994;SDS011;51687;52.160;5.298;2023-10-31T01:07:30;18.27;;;12.25;;
43994;SDS011;51687;52.160;5.298;2023-10-31T01:09:57;15.00;;;12.50;;
43994;SDS011;51687;52.160;5.298;2023-10-31T01:12:24;18.88;;;13.40;;
43994;SDS011;51687;52.160;5.298;2023-10-31T01:14:52;16.35;;;12.13;;
43994;SDS011;51687;52.160;5.298;2023-10-31T01:17:18;17.90;;;11.38;;
43994;SDS011;51687;52.160;5.298;2023-10-31T01:19:45;16.42;;;12.07;;
43994;SDS011;51687;52.160;5.298;2023-10-31T01:22:12;16.73;;;11.57;;
43994;SDS011;51687;52.160;5.298;2023-10-31T01:24:39;13.50;;;11.55;;
43994;SDS011;51687;52.160;5.298;2023-10-31T01:27:05;21.02;;;12.38;;
43994;SDS011;51687;52.160;5.298;2023-10-31T01:29:32;20.58;;;12.48;;
43994;SDS011;51687;52.160;5.298;2023-10-31T01:31:59;13.68;;;12.30;;
43994;SDS011;51687;52.160;5.298;2023-10-31T01:34:32;15.10;;;11.05;;
43994;SDS011;51687;52.160;5.298;2023-10-31T01:36:59;11.07;;;9.48;;
43994;SDS011;51687;52.160;5.298;2023-10-31T01:39:26;10.98;;;9.88;;
43994;SDS011;51687;52.160;5.298;2023-10-31T01:41:53;10.68;;;9.52;;
43994;SDS011;51687;52.160;5.298;2023-10-31T01:44:21;11.57;;;10.38;;
43994;SDS011;51687;52.160;5.298;2023-10-31T01:46:48;10.75;;;9.68;;
43994;SDS011;51687;52.160;5.298;2023-10-31T01:49:14;12.57;;;9.70;;
43994;SDS011;51687;52.160;5.298;2023-10-31T01:51:42;12.43;;;10.98;;
43994;SDS011;51687;52.160;5.298;2023-10-31T01:54:09;22.88;;;10.65;;
43994;SDS011;51687;52.160;5.298;2023-10-31T01:56:37;12.23;;;10.73;;
43994;SDS011;51687;52.160;5.298;2023-10-31T01:59:05;12.65;;;11.32;;
43994;SDS011;51687;52.160;5.298;2023-10-31T02:01:32;15.27;;;11.45;;
43994;SDS011;51687;52.160;5.298;2023-10-31T02:04:02;21.88;;;12.27;;
43994;SDS011;51687;52.160;5.298;2023-10-31T02:06:29;14.82;;;11.52;;
43994;SDS011;51687;52.160;5.298;2023-10-31T02:08:56;19.95;;;12.55;;
43994;SDS011;51687;52.160;5.298;2023-10-31T02:11:23;12.10;;;10.73;;
43994;SDS011;51687;52.160;5.298;2023-10-31T02:13:50;18.40;;;12.30;;
43994;SDS011;51687;52.160;5.298;2023-10-31T02:16:17;19.10;;;11.88;;
43994;SDS011;51687;52.160;5.298;2023-10-31T02:18:43;16.55;;;13.02;;
43994;SDS011;51687;52.160;5.298;2023-10-31T02:21:10;23.67;;;13.57;;
43994;SDS011;51687;52.160;5.298;2023-10-31T02:23:37;20.55;;;14.45;;
43994;SDS011;51687;52.160;5.298;2023-10-31T02:26:04;21.40;;;14.57;;
43994;SDS011;51687;52.160;5.298;2023-10-31T02:28:37;15.73;;;13.25;;
43994;SDS011;51687;52.160;5.298;2023-10-31T02:31:04;18.83;;;13.55;;
43994;SDS011;51687;52.160;5.298;2023-10-31T02:33:30;19.90;;;14.20;;
43994;SDS011;51687;52.160;5.298;2023-10-31T02:35:57;18.52;;;13.88;;
43994;SDS011;51687;52.160;5.298;2023-10-31T02:38:24;17.50;;;13.85;;
43994;SDS011;51687;52.160;5.298;2023-10-31T02:40:51;15.52;;;13.95;;
43994;SDS011;51687;52.160;5.298;2023-10-31T02:43:18;13.77;;;12.48;;
43994;SDS011;51687;52.160;5.298;2023-10-31T02:45:44;16.38;;;10.68;;
43994;SDS011;51687;52.160;5.298;2023-10-31T02:48:11;12.57;;;10.43;;
43994;SDS011;51687;52.160;5.298;2023-10-31T02:50:38;14.20;;;11.18;;
43994;SDS011;51687;52.160;5.298;2023-10-31T02:53:05;14.75;;;10.77;;
43994;SDS011;51687;52.160;5.298;2023-10-31T02:55:32;16.63;;;10.50;;
43994;SDS011;51687;52.160;5.298;2023-10-31T02:57:59;13.82;;;9.80;;
43994;SDS011;51687;52.160;5.298;2023-10-31T03:00:25;17.17;;;9.85;;
43994;SDS011;51687;52.160;5.298;2023-10-31T03:02:53;15.10;;;10.23;;
43994;SDS011;51687;52.160;5.298;2023-10-31T03:05:20;14.52;;;9.68;;
43994;SDS011;51687;52.160;5.298;2023-10-31T03:07:47;9.23;;;8.32;;
43994;SDS011;51687;52.160;5.298;2023-10-31T03:10:13;13.75;;;8.60;;
43994;SDS011;51687;52.160;5.298;2023-10-31T03:12:40;12.43;;;8.90;;
43994;SDS011;51687;52.160;5.298;2023-10-31T03:15:07;9.73;;;8.75;;
43994;SDS011;51687;52.160;5.298;2023-10-31T03:17:34;13.30;;;9.20;;
43994;SDS011;51687;52.160;5.298;2023-10-31T03:20:02;13.30;;;8.45;;
43994;SDS011;51687;52.160;5.298;2023-10-31T03:22:29;13.38;;;9.63;;
43994;SDS011;51687;52.160;5.298;2023-10-31T03:24:56;14.43;;;8.93;;
43994;SDS011;51687;52.160;5.298;2023-10-31T03:27:23;14.15;;;9.73;;
43994;SDS011;51687;52.160;5.298;2023-10-31T03:29:49;9.55;;;8.43;;
43994;SDS011;51687;52.160;5.298;2023-10-31T03:32:16;10.90;;;8.82;;
43994;SDS011;51687;52.160;5.298;2023-10-31T03:34:43;14.65;;;8.57;;
43994;SDS011;51687;52.160;5.298;2023-10-31T03:37:10;13.20;;;7.65;;
43994;SDS011;51687;52.160;5.298;2023-10-31T03:39:37;9.75;;;6.47;;
43994;SDS011;51687;52.160;5.298;2023-10-31T03:42:03;6.82;;;5.50;;
43994;SDS011;51687;52.160;5.298;2023-10-31T03:44:31;8.73;;;5.00;;
43994;SDS011;51687;52.160;5.298;2023-10-31T03:46:58;8.43;;;5.45;;
43994;SDS011;51687;52.160;5.298;2023-10-31T03:49:24;6.40;;;4.22;;
43994;SDS011;51687;52.160;5.298;2023-10-31T03:51:51;8.55;;;3.42;;
43994;SDS011;51687;52.160;5.298;2023-10-31T03:54:18;10.23;;;3.05;;
43994;SDS011;51687;52.160;5.298;2023-10-31T03:56:45;10.82;;;2.30;;
43994;SDS011;51687;52.160;5.298;2023-10-31T03:59:12;3.65;;;2.00;;
43994;SDS011;51687;52.160;5.298;2023-10-31T04:01:39;3.30;;;1.50;;
43994;SDS011;51687;52.160;5.298;2023-10-31T04:04:06;3.83;;;1.40;;
43994;SDS011;51687;52.160;5.298;2023-10-31T04:06:33;3.08;;;1.45;;
43994;SDS011;51687;52.160;5.298;2023-10-31T04:09:00;3.72;;;1.27;;
43994;SDS011;51687;52.160;5.298;2023-10-31T04:11:27;4.10;;;1.35;;
43994;SDS011;51687;52.160;5.298;2023-10-31T04:13:53;4.45;;;0.90;;
43994;SDS011;51687;52.160;5.298;2023-10-31T04:16:20;4.25;;;1.25;;
43994;SDS011;51687;52.160;5.298;2023-10-31T04:18:47;3.85;;;1.25;;
43994;SDS011;51687;52.160;5.298;2023-10-31T04:21:14;6.03;;;0.90;;
43994;SDS011;51687;52.160;5.298;2023-10-31T04:23:40;2.75;;;0.70;;
43994;SDS011;51687;52.160;5.298;2023-10-31T04:26:08;4.13;;;0.65;;
43994;SDS011;51687;52.160;5.298;2023-10-31T04:28:35;7.43;;;0.80;;
43994;SDS011;51687;52.160;5.298;2023-10-31T04:31:02;3.15;;;0.80;;
43994;SDS011;51687;52.160;5.298;2023-10-31T04:33:29;6.05;;;0.95;;
43994;SDS011;51687;52.160;5.298;2023-10-31T04:35:55;2.80;;;0.60;;
43994;SDS011;51687;52.160;5.298;2023-10-31T04:38:22;3.15;;;0.60;;
43994;SDS011;51687;52.160;5.298;2023-10-31T04:40:49;3.30;;;0.73;;
43994;SDS011;51687;52.160;5.298;2023-10-31T04:43:16;3.90;;;0.90;;
43994;SDS011;51687;52.160;5.298;2023-10-31T04:45:42;1.98;;;0.80;;
43994;SDS011;51687;52.160;5.298;2023-10-31T04:48:09;4.03;;;0.70;;
43994;SDS011;51687;52.160;5.298;2023-10-31T04:50:36;3.80;;;0.70;;
43994;SDS011;51687;52.160;5.298;2023-10-31T04:53:03;2.95;;;0.70;;
43994;SDS011;51687;52.160;5.298;2023-10-31T04:55:30;3.50;;;0.80;;
43994;SDS011;51687;52.160;5.298;2023-10-31T04:57:57;5.20;;;0.95;;
43994;SDS011;51687;52.160;5.298;2023-10-31T05:00:23;1.38;;;0.73;;
43994;SDS011;51687;52.160;5.298;2023-10-31T05:02:50;5.22;;;0.82;;
43994;SDS011;51687;52.160;5.298;2023-10-31T05:05:17;1.98;;;0.80;;
43994;SDS011;51687;52.160;5.298;2023-10-31T05:07:44;4.03;;;0.57;;
43994;SDS011;51687;52.160;5.298;2023-10-31T05:10:11;2.65;;;0.50;;
43994;SDS011;51687;52.160;5.298;2023-10-31T05:12:37;1.15;;;0.40;;
43994;SDS011;51687;52.160;5.298;2023-10-31T05:15:04;3.50;;;0.65;;
43994;SDS011;51687;52.160;5.298;2023-10-31T05:17:32;2.35;;;0.45;;
43994;SDS011;51687;52.160;5.298;2023-10-31T05:19:59;0.95;;;0.47;;
43994;SDS011;51687;52.160;5.298;2023-10-31T05:22:25;2.17;;;0.60;;
43994;SDS011;51687;52.160;5.298;2023-10-31T05:24:52;2.35;;;0.63;;
43994;SDS011;51687;52.160;5.298;2023-10-31T05:27:19;1.20;;;0.43;;
43994;SDS011;51687;52.160;5.298;2023-10-31T05:29:46;1.10;;;0.70;;
43994;SDS011;51687;52.160;5.298;2023-10-31T05:32:12;3.85;;;1.10;;
43994;SDS011;51687;52.160;5.298;2023-10-31T05:34:39;2.75;;;1.50;;
43994;SDS011;51687;52.160;5.298;2023-10-31T05:37:06;2.30;;;1.65;;
43994;SDS011;51687;52.160;5.298;2023-10-31T05:39:33;4.13;;;2.40;;
43994;SDS011;51687;52.160;5.298;2023-10-31T05:41:59;3.72;;;2.65;;
43994;SDS011;51687;52.160;5.298;2023-10-31T05:44:26;4.35;;;2.72;;
43994;SDS011;51687;52.160;5.298;2023-10-31T05:46:53;7.38;;;3.13;;
43994;SDS011;51687;52.160;5.298;2023-10-31T05:49:20;4.63;;;2.45;;
43994;SDS011;51687;52.160;5.298;2023-10-31T05:51:53;3.67;;;2.97;;
43994;SDS011;51687;52.160;5.298;2023-10-31T05:54:20;3.22;;;2.63;;
43994;SDS011;51687;52.160;5.298;2023-10-31T05:56:47;3.80;;;2.22;;
43994;SDS011;51687;52.160;5.298;2023-10-31T05:59:14;2.42;;;1.63;;
43994;SDS011;51687;52.160;5.298;2023-10-31T06:01:40;3.38;;;1.80;;
43994;SDS011;51687;52.160;5.298;2023-10-31T06:04:08;4.85;;;2.25;;
43994;SDS011;51687;52.160;5.298;2023-10-31T06:06:37;6.50;;;2.17;;
43994;SDS011;51687;52.160;5.298;2023-10-31T06:09:04;6.00;;;2.10;;
43994;SDS011;51687;52.160;5.298;2023-10-31T06:11:31;6.18;;;3.08;;
43994;SDS011;51687;52.160;5.298;2023-10-31T06:13:58;6.28;;;3.42;;
43994;SDS011;51687;52.160;5.298;2023-10-31T06:16:26;5.65;;;3.95;;
43994;SDS011;51687;52.160;5.298;2023-10-31T06:18:52;7.60;;;4.30;;
43994;SDS011;51687;52.160;5.298;2023-10-31T06:21:19;5.55;;;4.38;;
43994;SDS011;51687;52.160;5.298;2023-10-31T06:23:46;5.05;;;4.05;;
43994;SDS011;51687;52.160;5.298;2023-10-31T06:26:12;5.95;;;4.22;;
43994;SDS011;51687;52.160;5.298;2023-10-31T06:28:39;5.93;;;4.72;;
43994;SDS011;51687;52.160;5.298;2023-10-31T06:31:17;8.48;;;4.90;;
43994;SDS011;51687;52.160;5.298;2023-10-31T06:33:44;6.68;;;4.50;;
43994;SDS011;51687;52.160;5.298;2023-10-31T06:36:11;6.38;;;4.85;;
43994;SDS011;51687;52.160;5.298;2023-10-31T06:38:38;7.07;;;4.22;;
43994;SDS011;51687;52.160;5.298;2023-10-31T06:41:04;7.43;;;3.90;;
43994;SDS011;51687;52.160;5.298;2023-10-31T06:43:31;8.82;;;4.55;;
43994;SDS011;51687;52.160;5.298;2023-10-31T06:46:00;5.38;;;3.92;;
43994;SDS011;51687;52.160;5.298;2023-10-31T06:48:30;5.30;;;3.80;;
43994;SDS011;51687;52.160;5.298;2023-10-31T06:50:57;4.72;;;3.70;;
43994;SDS011;51687;52.160;5.298;2023-10-31T06:53:24;6.20;;;2.97;;
43994;SDS011;51687;52.160;5.298;2023-10-31T06:55:51;2.80;;;2.33;;
43994;SDS011;51687;52.160;5.298;2023-10-31T06:58:19;5.22;;;3.05;;
43994;SDS011;51687;52.160;5.298;2023-10-31T07:00:46;7.93;;;2.42;;
43994;SDS011;51687;52.160;5.298;2023-10-31T07:03:14;3.25;;;2.05;;
43994;SDS011;51687;52.160;5.298;2023-10-31T07:05:42;3.50;;;1.80;;
43994;SDS011;51687;52.160;5.298;2023-10-31T07:08:10;6.28;;;1.80;;
43994;SDS011;51687;52.160;5.298;2023-10-31T07:10:37;3.92;;;1.60;;
43994;SDS011;51687;52.160;5.298;2023-10-31T07:13:04;4.43;;;1.65;;
43994;SDS011;51687;52.160;5.298;2023-10-31T07:15:31;5.03;;;1.60;;
43994;SDS011;51687;52.160;5.298;2023-10-31T07:17:58;4.53;;;1.38;;
43994;SDS011;51687;52.160;5.298;2023-10-31T07:20:25;2.85;;;1.45;;
43994;SDS011;51687;52.160;5.298;2023-10-31T07:22:53;2.22;;;1.50;;
43994;SDS011;51687;52.160;5.298;2023-10-31T07:25:20;5.28;;;1.75;;
43994;SDS011;51687;52.160;5.298;2023-10-31T07:27:47;5.65;;;1.80;;
43994;SDS011;51687;52.160;5.298;2023-10-31T07:30:14;4.57;;;1.35;;
43994;SDS011;51687;52.160;5.298;2023-10-31T07:32:41;4.85;;;1.63;;
43994;SDS011;51687;52.160;5.298;2023-10-31T07:35:09;5.30;;;1.67;;
43994;SDS011;51687;52.160;5.298;2023-10-31T07:37:36;3.30;;;1.58;;
43994;SDS011;51687;52.160;5.298;2023-10-31T07:40:03;6.00;;;2.10;;
43994;SDS011;51687;52.160;5.298;2023-10-31T07:42:30;3.72;;;1.52;;
43994;SDS011;51687;52.160;5.298;2023-10-31T07:44:57;4.78;;;1.52;;
43994;SDS011;51687;52.160;5.298;2023-10-31T07:47:25;5.20;;;1.85;;
43994;SDS011;51687;52.160;5.298;2023-10-31T07:49:52;6.00;;;1.85;;
43994;SDS011;51687;52.160;5.298;2023-10-31T07:52:19;6.07;;;1.70;;
43994;SDS011;51687;52.160;5.298;2023-10-31T07:54:47;3.55;;;1.67;;
43994;SDS011;51687;52.160;5.298;2023-10-31T07:57:14;4.07;;;1.60;;
43994;SDS011;51687;52.160;5.298;2023-10-31T07:59:41;2.70;;;2.13;;
43994;SDS011;51687;52.160;5.298;2023-10-31T08:02:08;5.32;;;1.88;;
43994;SDS011;51687;52.160;5.298;2023-10-31T08:04:35;3.28;;;2.10;;
43994;SDS011;51687;52.160;5.298;2023-10-31T08:07:03;8.35;;;1.90;;
43994;SDS011;51687;52.160;5.298;2023-10-31T08:09:30;4.10;;;2.20;;
43994;SDS011;51687;52.160;5.298;2023-10-31T08:11:57;7.68;;;2.50;;
43994;SDS011;51687;52.160;5.298;2023-10-31T08:14:24;4.07;;;2.30;;
43994;SDS011;51687;52.160;5.298;2023-10-31T08:16:52;5.22;;;2.47;;
43994;SDS011;51687;52.160;5.298;2023-10-31T08:19:19;5.13;;;2.67;;
43994;SDS011;51687;52.160;5.298;2023-10-31T08:21:46;7.10;;;2.90;;
43994;SDS011;51687;52.160;5.298;2023-10-31T08:24:13;5.97;;;2.70;;
43994;SDS011;51687;52.160;5.298;2023-10-31T08:26:40;6.30;;;3.20;;
43994;SDS011;51687;52.160;5.298;2023-10-31T08:29:08;6.72;;;3.28;;
43994;SDS011;51687;52.160;5.298;2023-10-31T08:31:35;15.52;;;3.88;;
43994;SDS011;51687;52.160;5.298;2023-10-31T08:34:02;7.43;;;4.20;;
43994;SDS011;51687;52.160;5.298;2023-10-31T08:36:29;8.68;;;4.00;;
43994;SDS011;51687;52.160;5.298;2023-10-31T08:38:56;13.80;;;3.90;;
43994;SDS011;51687;52.160;5.298;2023-10-31T08:41:24;6.95;;;4.72;;
43994;SDS011;51687;52.160;5.298;2023-10-31T08:43:51;8.07;;;4.25;;
43994;SDS011;51687;52.160;5.298;2023-10-31T08:46:18;14.38;;;4.55;;
43994;SDS011;51687;52.160;5.298;2023-10-31T08:48:45;6.32;;;4.50;;
43994;SDS011;51687;52.160;5.298;2023-10-31T08:51:13;7.03;;;4.32;;
43994;SDS011;51687;52.160;5.298;2023-10-31T08:53:41;10.88;;;4.20;;
43994;SDS011;51687;52.160;5.298;2023-10-31T08:56:08;8.35;;;4.45;;
43994;SDS011;51687;52.160;5.298;2023-10-31T08:58:35;9.15;;;4.05;;
43994;SDS011;51687;52.160;5.298;2023-10-31T09:01:02;6.93;;;3.83;;
43994;SDS011;51687;52.160;5.298;2023-10-31T09:03:30;9.38;;;3.75;;
43994;SDS011;51687;52.160;5.298;2023-10-31T09:05:57;8.98;;;4.15;;
43994;SDS011;51687;52.160;5.298;2023-10-31T09:08:24;10.27;;;4.05;;
43994;SDS011;51687;52.160;5.298;2023-10-31T09:10:51;10.85;;;3.75;;
43994;SDS011;51687;52.160;5.298;2023-10-31T09:13:18;8.13;;;3.92;;
43994;SDS011;51687;52.160;5.298;2023-10-31T09:15:45;12.80;;;4.38;;
43994;SDS011;51687;52.160;5.298;2023-10-31T09:18:12;11.15;;;4.68;;
43994;SDS011;51687;52.160;5.298;2023-10-31T09:20:39;9.93;;;4.05;;
43994;SDS011;51687;52.160;5.298;2023-10-31T09:23:06;13.60;;;4.30;;
43994;SDS011;51687;52.160;5.298;2023-10-31T09:25:33;11.57;;;4.93;;
43994;SDS011;51687;52.160;5.298;2023-10-31T09:27:59;7.68;;;3.97;;
43994;SDS011;51687;52.160;5.298;2023-10-31T09:30:26;11.15;;;4.53;;
43994;SDS011;51687;52.160;5.298;2023-10-31T09:32:53;11.50;;;4.53;;
43994;SDS011;51687;52.160;5.298;2023-10-31T09:35:20;7.82;;;4.68;;
43994;SDS011;51687;52.160;5.298;2023-10-31T09:37:47;10.00;;;5.00;;
43994;SDS011;51687;52.160;5.298;2023-10-31T09:40:15;10.90;;;5.25;;
43994;SDS011;51687;52.160;5.298;2023-10-31T09:42:43;13.82;;;6.60;;
43994;SDS011;51687;52.160;5.298;2023-10-31T09:47:38;10.63;;;5.97;;
43994;SDS011;51687;52.160;5.298;2023-10-31T09:50:06;14.98;;;6.82;;
43994;SDS011;51687;52.160;5.298;2023-10-31T09:52:36;11.38;;;5.82;;
43994;SDS011;51687;52.160;5.298;2023-10-31T09:55:03;18.38;;;6.88;;
43994;SDS011;51687;52.160;5.298;2023-10-31T09:57:31;14.07;;;6.65;;
43994;SDS011;51687;52.160;5.298;2023-10-31T09:59:58;13.85;;;6.10;;
43994;SDS011;51687;52.160;5.298;2023-10-31T10:02:25;14.13;;;6.75;;
43994;SDS011;51687;52.160;5.298;2023-10-31T10:04:52;10.10;;;5.22;;
43994;SDS011;51687;52.160;5.298;2023-10-31T10:07:19;10.23;;;5.25;;
43994;SDS011;51687;52.160;5.298;2023-10-31T10:09:46;11.88;;;5.15;;
43994;SDS011;51687;52.160;5.298;2023-10-31T10:12:13;11.77;;;4.97;;
43994;SDS011;51687;52.160;5.298;2023-10-31T10:14:44;10.02;;;5.25;;
43994;SDS011;51687;52.160;5.298;2023-10-31T10:17:21;14.65;;;5.47;;
43994;SDS011;51687;52.160;5.298;2023-10-31T10:20:09;10.27;;;5.38;;
43994;SDS011;51687;52.160;5.298;2023-10-31T10:22:37;10.70;;;4.93;;
43994;SDS011;51687;52.160;5.298;2023-10-31T10:25:17;13.82;;;5.07;;
43994;SDS011;51687;52.160;5.298;2023-10-31T10:27:47;14.90;;;5.53;;
43994;SDS011;51687;52.160;5.298;2023-10-31T10:30:14;14.05;;;4.97;;
43994;SDS011;51687;52.160;5.298;2023-10-31T10:32:41;8.70;;;3.92;;
43994;SDS011;51687;52.160;5.298;2023-10-31T10:35:09;9.65;;;3.90;;
43994;SDS011;51687;52.160;5.298;2023-10-31T10:37:36;10.60;;;3.75;;
43994;SDS011;51687;52.160;5.298;2023-10-31T10:40:05;12.30;;;4.10;;
43994;SDS011;51687;52.160;5.298;2023-10-31T10:42:35;10.50;;;3.38;;
43994;SDS011;51687;52.160;5.298;2023-10-31T10:47:39;9.23;;;2.70;;
43994;SDS011;51687;52.160;5.298;2023-10-31T10:50:10;7.68;;;2.40;;
43994;SDS011;51687;52.160;5.298;2023-10-31T10:52:44;9.35;;;2.95;;
43994;SDS011;51687;52.160;5.298;2023-10-31T10:55:22;5.15;;;2.20;;
43994;SDS011;51687;52.160;5.298;2023-10-31T11:00:21;4.30;;;2.00;;
43994;SDS011;51687;52.160;5.298;2023-10-31T11:02:51;10.95;;;2.75;;
43994;SDS011;51687;52.160;5.298;2023-10-31T11:05:20;9.63;;;2.17;;
43994;SDS011;51687;52.160;5.298;2023-10-31T11:07:47;8.70;;;2.15;;
43994;SDS011;51687;52.160;5.298;2023-10-31T11:10:16;9.73;;;2.20;;
43994;SDS011;51687;52.160;5.298;2023-10-31T11:12:44;7.50;;;1.75;;
43994;SDS011;51687;52.160;5.298;2023-10-31T11:15:12;5.60;;;1.90;;
43994;SDS011;51687;52.160;5.298;2023-10-31T11:17:45;8.10;;;2.90;;
43994;SDS011;51687;52.160;5.298;2023-10-31T11:20:14;13.65;;;4.85;;
43994;SDS011;51687;52.160;5.298;2023-10-31T11:22:45;7.65;;;2.83;;
43994;SDS011;51687;52.160;5.298;2023-10-31T11:25:17;9.65;;;2.90;;
43994;SDS011;51687;52.160;5.298;2023-10-31T11:28:19;7.53;;;3.28;;
43994;SDS011;51687;52.160;5.298;2023-10-31T11:30:48;6.20;;;3.17;;
43994;SDS011;51687;52.160;5.298;2023-10-31T11:33:16;10.02;;;3.30;;
43994;SDS011;51687;52.160;5.298;2023-10-31T11:36:05;7.10;;;2.75;;
43994;SDS011;51687;52.160;5.298;2023-10-31T11:38:34;8.35;;;3.53;;
43994;SDS011;51687;52.160;5.298;2023-10-31T11:41:02;6.80;;;2.90;;
43994;SDS011;51687;52.160;5.298;2023-10-31T11:46:06;7.47;;;2.50;;
43994;SDS011;51687;52.160;5.298;2023-10-31T11:48:49;7.47;;;2.40;;
43994;SDS011;51687;52.160;5.298;2023-10-31T11:51:20;6.93;;;2.42;;
43994;SDS011;51687;52.160;5.298;2023-10-31T11:53:48;9.02;;;2.90;;
43994;SDS011;51687;52.160;5.298;2023-10-31T11:56:19;5.18;;;2.08;;
43994;SDS011;51687;52.160;5.298;2023-10-31T11:58:56;6.30;;;2.70;;
43994;SDS011;51687;52.160;5.298;2023-10-31T12:01:28;6.35;;;1.90;;
43994;SDS011;51687;52.160;5.298;2023-10-31T12:03:55;4.30;;;1.70;;
43994;SDS011;51687;52.160;5.298;2023-10-31T12:06:22;4.72;;;1.58;;
43994;SDS011;51687;52.160;5.298;2023-10-31T12:08:49;3.60;;;1.92;;
43994;SDS011;51687;52.160;5.298;2023-10-31T12:11:17;6.65;;;2.30;;
43994;SDS011;51687;52.160;5.298;2023-10-31T12:13:52;4.97;;;1.58;;
43994;SDS011;51687;52.160;5.298;2023-10-31T12:16:22;4.03;;;1.50;;
43994;SDS011;51687;52.160;5.298;2023-10-31T12:18:54;5.47;;;1.73;;
43994;SDS011;51687;52.160;5.298;2023-10-31T12:21:43;4.53;;;2.03;;
43994;SDS011;51687;52.160;5.298;2023-10-31T12:24:14;7.45;;;2.72;;
43994;SDS011;51687;52.160;5.298;2023-10-31T12:26:41;7.43;;;2.95;;
43994;SDS011;51687;52.160;5.298;2023-10-31T12:29:12;11.98;;;4.93;;
43994;SDS011;51687;52.160;5.298;2023-10-31T12:31:44;16.80;;;8.00;;
43994;SDS011;51687;52.160;5.298;2023-10-31T12:34:16;17.23;;;9.48;;
43994;SDS011;51687;52.160;5.298;2023-10-31T12:36:44;14.00;;;10.65;;
43994;SDS011;51687;52.160;5.298;2023-10-31T12:39:13;14.13;;;10.90;;
43994;SDS011;51687;52.160;5.298;2023-10-31T12:41:43;17.48;;;12.02;;
43994;SDS011;51687;52.160;5.298;2023-10-31T12:44:10;14.02;;;12.80;;
43994;SDS011;51687;52.160;5.298;2023-10-31T12:46:40;16.77;;;13.35;;
43994;SDS011;51687;52.160;5.298;2023-10-31T12:49:25;15.88;;;12.23;;
43994;SDS011;51687;52.160;5.298;2023-10-31T12:51:57;16.88;;;14.23;;
43994;SDS011;51687;52.160;5.298;2023-10-31T12:54:35;18.75;;;15.15;;
43994;SDS011;51687;52.160;5.298;2023-10-31T12:57:04;16.30;;;14.60;;
43994;SDS011;51687;52.160;5.298;2023-10-31T12:59:35;19.48;;;14.27;;
43994;SDS011;51687;52.160;5.298;2023-10-31T13:02:06;16.70;;;15.00;;
43994;SDS011;51687;52.160;5.298;2023-10-31T13:04:34;17.13;;;15.40;;
43994;SDS011;51687;52.160;5.298;2023-10-31T13:07:05;16.10;;;14.60;;
43994;SDS011;51687;52.160;5.298;2023-10-31T13:09:37;18.88;;;15.23;;
43994;SDS011;51687;52.160;5.298;2023-10-31T13:12:06;17.45;;;15.80;;
43994;SDS011;51687;52.160;5.298;2023-10-31T13:14:35;18.48;;;16.55;;
43994;SDS011;51687;52.160;5.298;2023-10-31T13:19:30;18.02;;;16.40;;
43994;SDS011;51687;52.160;5.298;2023-10-31T13:21:57;23.08;;;18.58;;
43994;SDS011;51687;52.160;5.298;2023-10-31T13:24:24;22.50;;;20.38;;
43994;SDS011;51687;52.160;5.298;2023-10-31T13:26:50;29.17;;;21.38;;
43994;SDS011;51687;52.160;5.298;2023-10-31T13:29:19;39.30;;;22.83;;
43994;SDS011;51687;52.160;5.298;2023-10-31T13:31:46;31.27;;;22.55;;
43994;SDS011;51687;52.160;5.298;2023-10-31T13:34:13;26.75;;;22.05;;
43994;SDS011;51687;52.160;5.298;2023-10-31T13:36:40;24.92;;;22.48;;
43994;SDS011;51687;52.160;5.298;2023-10-31T13:39:08;26.20;;;22.80;;
43994;SDS011;51687;52.160;5.298;2023-10-31T13:41:36;31.23;;;24.10;;
43994;SDS011;51687;52.160;5.298;2023-10-31T13:44:03;39.83;;;25.65;;
43994;SDS011;51687;52.160;5.298;2023-10-31T13:46:30;38.55;;;27.10;;
43994;SDS011;51687;52.160;5.298;2023-10-31T13:48:57;40.95;;;27.00;;
43994;SDS011;51687;52.160;5.298;2023-10-31T13:51:25;34.90;;;26.05;;
43994;SDS011;51687;52.160;5.298;2023-10-31T13:53:52;33.40;;;28.00;;
43994;SDS011;51687;52.160;5.298;2023-10-31T13:56:19;29.98;;;27.13;;
43994;SDS011;51687;52.160;5.298;2023-10-31T13:58:46;28.88;;;25.95;;
43994;SDS011;51687;52.160;5.298;2023-10-31T14:01:14;28.00;;;25.48;;
43994;SDS011;51687;52.160;5.298;2023-10-31T14:03:41;25.58;;;23.38;;
43994;SDS011;51687;52.160;5.298;2023-10-31T14:06:11;31.25;;;24.60;;
43994;SDS011;51687;52.160;5.298;2023-10-31T14:08:39;26.02;;;23.38;;
43994;SDS011;51687;52.160;5.298;2023-10-31T14:11:06;26.48;;;23.85;;
43994;SDS011;51687;52.160;5.298;2023-10-31T14:13:37;24.50;;;22.40;;
43994;SDS011;51687;52.160;5.298;2023-10-31T14:16:04;24.90;;;22.38;;
43994;SDS011;51687;52.160;5.298;2023-10-31T14:18:32;25.75;;;22.90;;
43994;SDS011;51687;52.160;5.298;2023-10-31T14:20:59;24.13;;;21.75;;
43994;SDS011;51687;52.160;5.298;2023-10-31T14:23:25;23.98;;;21.77;;
43994;SDS011;51687;52.160;5.298;2023-10-31T14:25:52;22.52;;;20.52;;
43994;SDS011;51687;52.160;5.298;2023-10-31T14:28:19;23.25;;;21.00;;
43994;SDS011;51687;52.160;5.298;2023-10-31T14:30:46;23.50;;;21.20;;
43994;SDS011;51687;52.160;5.298;2023-10-31T14:33:12;23.10;;;21.13;;
43994;SDS011;51687;52.160;5.298;2023-10-31T14:35:40;24.20;;;21.67;;
43994;SDS011;51687;52.160;5.298;2023-10-31T14:38:06;21.83;;;19.88;;
43994;SDS011;51687;52.160;5.298;2023-10-31T14:40:33;23.23;;;21.20;;
43994;SDS011;51687;52.160;5.298;2023-10-31T14:43:00;22.85;;;20.77;;
43994;SDS011;51687;52.160;5.298;2023-10-31T14:45:27;21.63;;;19.92;;
43994;SDS011;51687;52.160;5.298;2023-10-31T14:47:54;24.17;;;22.05;;
43994;SDS011;51687;52.160;5.298;2023-10-31T14:50:21;26.02;;;21.65;;
43994;SDS011;51687;52.160;5.298;2023-10-31T14:52:48;24.73;;;22.15;;
43994;SDS011;51687;52.160;5.298;2023-10-31T14:55:14;27.05;;;24.58;;